Time;durP1;ratioP1;P1;durP2;ratioP2;P2;SDS_P1;SDS_P2;PMS_P1;PMS_P2;Temp;Humidity;BMP_temperature;BMP_pressure;BME280_temperature;BME280_humidity;BME280_pressure;Samples;Min_cycle;Max_cycle;Signal;HPM_P1;HPM_P2
2023/04/05 00:00:53;;;;;;;3.30;2.92;;;;;;;;;;5060492;28;20090;-61
2023/04/05 00:03:18;;;;;;;3.03;2.70;;;;;;;;;;5057755;28;20041;-62
2023/04/05 00:05:44;;;;;;;2.92;2.65;;;;;;;;;;5055477;28;20671;-62
2023/04/05 00:08:22;;;;;;;3.10;2.80;;;;;;;;;;5030582;28;20041;-62
2023/04/05 00:10:47;;;;;;;3.40;3.10;;;;;;;;;;5063908;28;20044;-62
2023/04/05 00:13:13;;;;;;;3.10;2.80;;;;;;;;;;5066465;28;20162;-62
2023/04/05 00:15:38;;;;;;;3.20;2.67;;;;;;;;;;5054563;28;20545;-62
2023/04/05 00:18:03;;;;;;;3.20;2.90;;;;;;;;;;5060327;28;20532;-62
2023/04/05 00:20:28;;;;;;;3.00;2.70;;;;;;;;;;5060520;28;20885;-62
2023/04/05 00:22:54;;;;;;;2.90;2.70;;;;;;;;;;5066850;28;20042;-63
2023/04/05 00:25:20;;;;;;;3.23;2.93;;;;;;;;;;5067331;28;20044;-62
2023/04/05 00:27:46;;;;;;;2.90;2.60;;;;;;;;;;5071212;28;20295;-62
2023/04/05 00:30:11;;;;;;;2.67;2.47;;;;;;;;;;5065638;28;20047;-61
2023/04/05 00:32:36;;;;;;;3.42;3.13;;;;;;;;;;5051649;28;20285;-62
2023/04/05 00:35:01;;;;;;;3.30;3.00;;;;;;;;;;5059543;28;20457;-62
2023/04/05 00:37:27;;;;;;;3.40;2.80;;;;;;;;;;5062080;28;20074;-63
2023/04/05 00:39:52;;;;;;;3.33;3.03;;;;;;;;;;5067139;28;20328;-63
2023/04/05 00:42:18;;;;;;;3.20;2.90;;;;;;;;;;5066150;28;20296;-63
2023/04/05 00:44:43;;;;;;;3.20;2.90;;;;;;;;;;5061645;28;20033;-62
2023/04/05 00:47:08;;;;;;;2.93;2.60;;;;;;;;;;5066188;28;20090;-61
2023/04/05 00:49:34;;;;;;;3.27;2.97;;;;;;;;;;5066800;28;20044;-62
2023/04/05 00:52:00;;;;;;;3.25;2.95;;;;;;;;;;5064569;28;20124;-62
2023/04/05 00:54:27;;;;;;;3.20;2.90;;;;;;;;;;5066234;28;20206;-61
2023/04/05 00:56:52;;;;;;;3.20;2.90;;;;;;;;;;5065500;28;20047;-62
2023/04/05 00:59:18;;;;;;;3.58;3.08;;;;;;;;;;5058186;28;20115;-62
2023/04/05 01:01:53;;;;;;;3.30;3.00;;;;;;;;;;5066868;28;20402;-61
2023/04/05 01:04:20;;;;;;;3.15;2.85;;;;;;;;;;5072005;28;20124;-62
2023/04/05 01:06:57;;;;;;;3.45;2.95;;;;;;;;;;5061744;28;20036;-62
2023/04/05 01:09:42;;;;;;;3.17;2.88;;;;;;;;;;5066140;28;20089;-63
2023/04/05 01:12:08;;;;;;;3.13;2.83;;;;;;;;;;5061983;28;20044;-61
2023/04/05 01:14:43;;;;;;;3.70;3.03;;;;;;;;;;5057185;28;20397;-63
2023/04/05 01:17:09;;;;;;;3.30;3.00;;;;;;;;;;5059512;28;20032;-62
2023/04/05 01:19:40;;;;;;;3.13;2.83;;;;;;;;;;5060313;28;20054;-61
2023/04/05 01:22:12;;;;;;;3.72;3.33;;;;;;;;;;5064727;28;20093;-62
2023/04/05 01:24:38;;;;;;;3.10;2.80;;;;;;;;;;5065549;28;20578;-60
2023/04/05 01:27:05;;;;;;;3.33;3.03;;;;;;;;;;5065605;28;20135;-61
2023/04/05 01:29:40;;;;;;;3.30;3.00;;;;;;;;;;5059597;28;20056;-64
2023/04/05 01:32:24;;;;;;;3.25;2.95;;;;;;;;;;5052642;28;20249;-63
2023/04/05 01:35:04;;;;;;;3.30;3.00;;;;;;;;;;5061584;28;20049;-62
2023/04/05 01:37:29;;;;;;;3.17;2.88;;;;;;;;;;5047246;28;20039;-62
2023/04/05 01:39:54;;;;;;;3.10;2.80;;;;;;;;;;5060092;28;20472;-62
2023/04/05 01:42:26;;;;;;;2.95;2.65;;;;;;;;;;5065179;28;20036;-61
2023/04/05 01:44:52;;;;;;;3.65;3.30;;;;;;;;;;5061973;28;20032;-62
2023/04/05 01:47:17;;;;;;;3.63;3.13;;;;;;;;;;5064874;28;20028;-63
2023/04/05 01:49:42;;;;;;;3.30;3.00;;;;;;;;;;5051967;28;20063;-62
2023/04/05 01:52:07;;;;;;;3.50;3.20;;;;;;;;;;5055588;28;20033;-60
2023/04/05 01:54:33;;;;;;;2.85;2.55;;;;;;;;;;5064336;28;20090;-62
2023/04/05 01:56:58;;;;;;;3.27;2.97;;;;;;;;;;5065096;28;20452;-62
2023/04/05 01:59:23;;;;;;;2.97;2.67;;;;;;;;;;5065100;28;20282;-62
2023/04/05 02:01:48;;;;;;;3.33;3.03;;;;;;;;;;5065293;28;20295;-62
2023/04/05 02:04:14;;;;;;;3.50;2.97;;;;;;;;;;5062989;28;20387;-62
2023/04/05 02:06:40;;;;;;;3.25;2.95;;;;;;;;;;5064935;28;20121;-62
2023/04/05 02:09:05;;;;;;;3.67;3.28;;;;;;;;;;5064764;28;20040;-64
2023/04/05 02:11:30;;;;;;;3.90;3.50;;;;;;;;;;5064319;28;20044;-63
2023/04/05 02:13:55;;;;;;;3.63;3.27;;;;;;;;;;5064804;28;20373;-63
2023/04/05 02:16:21;;;;;;;3.00;2.72;;;;;;;;;;5054483;28;20184;-63
2023/04/05 02:18:49;;;;;;;3.20;2.90;;;;;;;;;;5062458;28;20139;-63
2023/04/05 02:21:15;;;;;;;3.13;2.80;;;;;;;;;;5064709;28;20067;-63
2023/04/05 02:23:41;;;;;;;3.10;2.80;;;;;;;;;;5064456;28;20028;-62
2023/04/05 02:26:06;;;;;;;3.03;2.72;;;;;;;;;;5064657;28;20844;-62
2023/04/05 02:28:31;;;;;;;3.30;3.00;;;;;;;;;;5064199;28;20094;-64
2023/04/05 02:30:56;;;;;;;3.38;3.08;;;;;;;;;;5060423;28;20345;-63
2023/04/05 02:33:22;;;;;;;3.13;2.80;;;;;;;;;;5060032;28;20078;-62
2023/04/05 02:35:48;;;;;;;3.53;2.90;;;;;;;;;;5064952;28;20528;-63
2023/04/05 02:38:13;;;;;;;3.17;2.88;;;;;;;;;;5055669;28;20664;-63
2023/04/05 02:40:40;;;;;;;3.17;2.77;;;;;;;;;;5063638;28;20037;-64
2023/04/05 02:43:05;;;;;;;3.03;2.70;;;;;;;;;;5063497;28;20298;-62
2023/04/05 02:45:31;;;;;;;2.90;2.60;;;;;;;;;;5063861;28;20378;-62
2023/04/05 02:47:56;;;;;;;3.03;2.72;;;;;;;;;;5064054;28;20279;-63
2023/04/05 02:50:22;;;;;;;3.13;2.83;;;;;;;;;;5064796;28;20068;-62
2023/04/05 02:52:47;;;;;;;3.42;3.03;;;;;;;;;;5064294;28;20274;-62
2023/04/05 02:55:12;;;;;;;3.63;3.30;;;;;;;;;;5053662;28;20145;-63
2023/04/05 02:57:38;;;;;;;3.27;2.97;;;;;;;;;;5047234;28;20136;-62
2023/04/05 03:00:04;;;;;;;3.22;2.92;;;;;;;;;;5046444;28;20433;-62
2023/04/05 03:02:30;;;;;;;3.15;2.80;;;;;;;;;;5041533;28;20049;-62
2023/04/05 03:04:55;;;;;;;3.40;2.80;;;;;;;;;;5082352;28;20041;-62
2023/04/05 03:07:20;;;;;;;3.20;2.90;;;;;;;;;;5066878;28;20148;-61
2023/04/05 03:09:46;;;;;;;3.28;2.97;;;;;;;;;;5067918;28;20334;-62
2023/04/05 03:12:11;;;;;;;3.40;2.78;;;;;;;;;;5062691;28;20465;-62
2023/04/05 03:14:37;;;;;;;3.50;2.80;;;;;;;;;;5073957;28;20484;-63
2023/04/05 03:17:02;;;;;;;2.92;2.60;;;;;;;;;;5057736;28;20326;-61
2023/04/05 03:19:28;;;;;;;2.88;2.58;;;;;;;;;;5084513;28;20028;-62
2023/04/05 03:21:53;;;;;;;2.63;2.43;;;;;;;;;;5084608;28;20028;-62
2023/04/05 03:24:18;;;;;;;2.53;2.33;;;;;;;;;;5091050;28;20302;-63
2023/04/05 03:26:47;;;;;;;3.13;2.83;;;;;;;;;;5081324;28;20101;-63
2023/04/05 03:29:12;;;;;;;2.80;2.50;;;;;;;;;;5075127;28;20287;-63
2023/04/05 03:31:37;;;;;;;2.50;2.30;;;;;;;;;;5061620;28;20048;-62
2023/04/05 03:34:03;;;;;;;2.53;2.08;;;;;;;;;;5066372;28;20286;-62
2023/04/05 03:36:29;;;;;;;2.90;2.40;;;;;;;;;;5066852;28;20059;-62
2023/04/05 03:38:55;;;;;;;2.53;2.33;;;;;;;;;;5067216;28;20389;-61
2023/04/05 03:41:20;;;;;;;2.75;2.30;;;;;;;;;;5050522;28;20143;-62
2023/04/05 03:43:45;;;;;;;2.53;2.20;;;;;;;;;;5069482;28;20039;-62
2023/04/05 03:46:10;;;;;;;2.83;2.08;;;;;;;;;;5069887;28;20036;-62
2023/04/05 03:48:36;;;;;;;2.60;2.20;;;;;;;;;;5054205;28;20098;-62
2023/04/05 03:51:01;;;;;;;2.75;2.00;;;;;;;;;;5051456;28;21000;-62
2023/04/05 03:53:28;;;;;;;2.50;2.07;;;;;;;;;;5051842;28;20279;-62
2023/04/05 03:55:54;;;;;;;2.47;2.10;;;;;;;;;;5052024;28;20062;-62
2023/04/05 03:58:19;;;;;;;2.33;1.95;;;;;;;;;;5070038;28;20078;-62
2023/04/05 04:00:45;;;;;;;2.85;2.10;;;;;;;;;;5068070;28;20067;-63
2023/04/05 04:03:10;;;;;;;2.20;1.98;;;;;;;;;;5050848;28;20686;-62
2023/04/05 04:05:37;;;;;;;2.05;1.85;;;;;;;;;;5069425;28;20074;-63
2023/04/05 04:08:03;;;;;;;2.30;2.05;;;;;;;;;;5067949;28;20043;-62
2023/04/05 04:10:29;;;;;;;2.28;1.90;;;;;;;;;;5069008;28;20327;-63
2023/04/05 04:12:54;;;;;;;2.30;2.08;;;;;;;;;;5070761;28;20496;-63
2023/04/05 04:15:19;;;;;;;2.30;2.10;;;;;;;;;;5071003;28;20044;-63
2023/04/05 04:17:45;;;;;;;2.42;2.20;;;;;;;;;;5074309;28;20032;-64
2023/04/05 04:20:11;;;;;;;2.30;1.90;;;;;;;;;;5071948;28;20800;-63
2023/04/05 04:22:37;;;;;;;2.10;1.85;;;;;;;;;;5072648;28;20097;-62
2023/04/05 04:25:15;;;;;;;2.28;2.08;;;;;;;;;;5073196;28;20047;-63
2023/04/05 04:27:41;;;;;;;2.40;2.10;;;;;;;;;;5072937;28;20063;-63
2023/04/05 04:30:09;;;;;;;3.28;1.67;;;;;;;;;;5048818;28;20503;-61
2023/04/05 04:35:23;;;;;;;2.97;1.45;;;;;;;;;;5070014;28;20427;-62
2023/04/05 04:38:09;;;;;;;2.28;2.03;;;;;;;;;;5056983;28;20064;-63
2023/04/05 04:40:37;;;;;;;1.88;1.60;;;;;;;;;;5070052;28;20516;-63
2023/04/05 04:43:08;;;;;;;2.30;2.00;;;;;;;;;;5042083;28;20043;-62
2023/04/05 04:45:36;;;;;;;2.80;1.77;;;;;;;;;;5052655;28;20457;-64
2023/04/05 04:48:03;;;;;;;2.15;1.95;;;;;;;;;;5070454;28;20456;-65
2023/04/05 04:50:29;;;;;;;2.15;1.70;;;;;;;;;;5069834;28;20025;-63
2023/04/05 04:52:54;;;;;;;3.78;1.85;;;;;;;;;;5056645;28;20016;-61
2023/04/05 04:55:24;;;;;;;2.80;1.63;;;;;;;;;;5036358;28;20031;-63
2023/04/05 04:57:53;;;;;;;4.00;1.70;;;;;;;;;;5056526;28;20055;-62
2023/04/05 05:00:19;;;;;;;2.50;1.77;;;;;;;;;;5051575;28;20156;-65
2023/04/05 05:02:44;;;;;;;4.50;1.80;;;;;;;;;;5069434;28;20593;-63
2023/04/05 05:05:10;;;;;;;2.50;1.33;;;;;;;;;;5069137;28;20020;-63
2023/04/05 05:07:35;;;;;;;4.53;1.83;;;;;;;;;;5068393;28;20670;-69
2023/04/05 05:10:01;;;;;;;2.85;1.80;;;;;;;;;;5069827;28;20039;-62
2023/04/05 05:12:26;;;;;;;2.67;1.85;;;;;;;;;;5069111;28;20048;-62
2023/04/05 05:14:51;;;;;;;2.33;1.60;;;;;;;;;;5056365;28;20028;-63
2023/04/05 05:17:17;;;;;;;2.13;1.60;;;;;;;;;;5070055;28;20024;-62
2023/04/05 05:19:42;;;;;;;1.60;1.43;;;;;;;;;;5070722;28;20456;-64
2023/04/05 05:22:07;;;;;;;1.90;1.33;;;;;;;;;;5069415;28;20478;-62
2023/04/05 05:24:32;;;;;;;6.03;1.80;;;;;;;;;;5069707;28;20464;-62
2023/04/05 05:26:58;;;;;;;2.03;1.20;;;;;;;;;;5067327;28;20273;-62
2023/04/05 05:29:23;;;;;;;6.67;1.47;;;;;;;;;;5065805;28;20276;-61
2023/04/05 05:31:48;;;;;;;2.08;1.50;;;;;;;;;;5066667;28;20285;-61
2023/04/05 05:34:14;;;;;;;2.38;1.55;;;;;;;;;;5054092;28;20024;-61
2023/04/05 05:36:39;;;;;;;1.88;1.45;;;;;;;;;;5070477;28;20087;-60
2023/04/05 05:39:06;;;;;;;1.70;1.40;;;;;;;;;;5070033;28;20501;-59
2023/04/05 05:41:31;;;;;;;2.55;1.45;;;;;;;;;;5071177;28;20294;-60
2023/04/05 05:43:57;;;;;;;3.03;1.65;;;;;;;;;;5068368;28;20048;-60
2023/04/05 05:46:23;;;;;;;2.60;1.60;;;;;;;;;;5069271;28;20149;-62
2023/04/05 05:48:48;;;;;;;2.67;1.53;;;;;;;;;;5069025;28;20285;-62
2023/04/05 05:51:13;;;;;;;3.10;1.70;;;;;;;;;;5069128;28;20044;-62
2023/04/05 05:53:38;;;;;;;2.33;1.50;;;;;;;;;;5077638;28;20285;-62
2023/04/05 05:56:04;;;;;;;1.97;1.37;;;;;;;;;;5039271;28;20111;-62
2023/04/05 05:58:30;;;;;;;1.83;1.30;;;;;;;;;;5055568;28;20675;-61
2023/04/05 06:00:55;;;;;;;2.58;1.63;;;;;;;;;;5069483;28;20059;-60
2023/04/05 06:03:20;;;;;;;2.15;1.27;;;;;;;;;;5069034;28;20188;-60
2023/04/05 06:05:52;;;;;;;2.20;1.58;;;;;;;;;;5066522;28;20120;-61
2023/04/05 06:08:18;;;;;;;2.13;1.70;;;;;;;;;;5055090;28;20036;-61
2023/04/05 06:10:43;;;;;;;1.30;1.10;;;;;;;;;;5068487;28;20387;-60
2023/04/05 06:13:08;;;;;;;2.00;1.30;;;;;;;;;;5037260;28;20401;-61
2023/04/05 06:15:33;;;;;;;1.97;1.30;;;;;;;;;;5040175;28;20292;-60
2023/04/05 06:17:59;;;;;;;1.53;1.20;;;;;;;;;;5069328;28;20317;-61
2023/04/05 06:20:24;;;;;;;1.50;1.20;;;;;;;;;;5067952;28;20032;-61
2023/04/05 06:22:49;;;;;;;1.50;1.20;;;;;;;;;;5056763;28;20298;-60
2023/04/05 06:25:14;;;;;;;1.80;1.25;;;;;;;;;;5068767;28;20301;-60
2023/04/05 06:27:40;;;;;;;1.60;1.30;;;;;;;;;;5054040;28;20043;-61
2023/04/05 06:30:05;;;;;;;1.52;1.23;;;;;;;;;;5067408;28;20128;-61
2023/04/05 06:32:31;;;;;;;1.58;1.42;;;;;;;;;;5070146;28;20033;-60
2023/04/05 06:34:56;;;;;;;2.25;1.20;;;;;;;;;;5068819;28;20044;-60
2023/04/05 06:37:21;;;;;;;1.33;1.10;;;;;;;;;;5049784;28;20048;-61
2023/04/05 06:39:47;;;;;;;1.70;1.23;;;;;;;;;;5069075;28;20694;-61
2023/04/05 06:42:12;;;;;;;2.20;1.40;;;;;;;;;;5069636;28;20043;-63
2023/04/05 06:44:37;;;;;;;1.50;1.10;;;;;;;;;;5056735;28;20471;-62
2023/04/05 06:47:03;;;;;;;1.47;1.00;;;;;;;;;;5071313;28;20521;-64
2023/04/05 06:49:29;;;;;;;1.50;1.20;;;;;;;;;;5045807;28;20298;-61
2023/04/05 06:51:54;;;;;;;1.98;1.25;;;;;;;;;;5068247;28;20040;-63
2023/04/05 06:54:21;;;;;;;1.75;1.20;;;;;;;;;;5069238;28;20095;-61
2023/04/05 06:56:47;;;;;;;1.88;1.15;;;;;;;;;;5067823;28;20036;-60
2023/04/05 06:59:12;;;;;;;2.38;1.40;;;;;;;;;;5065884;28;20051;-63
2023/04/05 07:01:37;;;;;;;1.73;1.30;;;;;;;;;;5079221;28;20036;-61
2023/04/05 07:04:03;;;;;;;1.73;1.20;;;;;;;;;;5069564;28;20119;-61
2023/04/05 07:06:28;;;;;;;2.07;1.20;;;;;;;;;;5070243;28;20876;-61
2023/04/05 07:08:53;;;;;;;1.58;1.13;;;;;;;;;;5067541;28;20827;-61
2023/04/05 07:11:18;;;;;;;1.73;1.10;;;;;;;;;;5065160;28;20501;-62
2023/04/05 07:13:44;;;;;;;1.63;1.10;;;;;;;;;;5067003;28;20428;-61
2023/04/05 07:16:10;;;;;;;2.10;1.30;;;;;;;;;;5065861;28;20401;-61
2023/04/05 07:18:35;;;;;;;1.40;1.10;;;;;;;;;;5068265;28;20077;-61
2023/04/05 07:21:00;;;;;;;1.50;1.00;;;;;;;;;;5067583;28;20291;-60
2023/04/05 07:23:29;;;;;;;1.50;1.27;;;;;;;;;;5067254;28;20306;-60
2023/04/05 07:25:54;;;;;;;1.92;1.30;;;;;;;;;;5055742;28;20075;-63
2023/04/05 07:28:20;;;;;;;1.85;1.20;;;;;;;;;;5069053;28;20694;-61
2023/04/05 07:30:45;;;;;;;1.35;1.17;;;;;;;;;;5054016;28;20124;-60
2023/04/05 07:33:11;;;;;;;1.65;1.20;;;;;;;;;;5067000;28;20029;-61
2023/04/05 07:35:36;;;;;;;1.60;1.13;;;;;;;;;;5055832;28;20036;-60
2023/04/05 07:38:01;;;;;;;2.20;1.20;;;;;;;;;;5068014;28;20040;-60
2023/04/05 07:40:26;;;;;;;2.23;1.30;;;;;;;;;;5067704;28;20044;-60
2023/04/05 07:42:52;;;;;;;2.13;1.08;;;;;;;;;;5067788;28;20295;-61
2023/04/05 07:45:17;;;;;;;1.85;1.25;;;;;;;;;;5067701;28;20037;-61
2023/04/05 07:47:42;;;;;;;1.70;1.17;;;;;;;;;;5052014;28;21543;-61
2023/04/05 07:50:09;;;;;;;1.65;1.13;;;;;;;;;;5037426;28;20399;-60
2023/04/05 07:52:34;;;;;;;1.85;1.10;;;;;;;;;;5072280;28;20044;-60
2023/04/05 07:54:59;;;;;;;2.28;1.20;;;;;;;;;;5053744;28;20064;-61
2023/04/05 07:57:25;;;;;;;1.48;1.00;;;;;;;;;;5058646;28;20402;-61
2023/04/05 07:59:51;;;;;;;1.40;0.93;;;;;;;;;;5068191;28;20466;-63
2023/04/05 08:02:17;;;;;;;2.13;1.20;;;;;;;;;;5072173;28;20516;-63
2023/04/05 08:04:42;;;;;;;1.60;1.08;;;;;;;;;;5057700;28;20036;-62
2023/04/05 08:07:07;;;;;;;1.92;1.10;;;;;;;;;;5058067;28;20029;-63
2023/04/05 08:09:33;;;;;;;1.45;1.00;;;;;;;;;;5052434;28;20116;-63
2023/04/05 08:11:58;;;;;;;1.97;1.27;;;;;;;;;;5055313;28;20158;-62
2023/04/05 08:14:23;;;;;;;1.92;0.80;;;;;;;;;;5070578;28;20282;-64
2023/04/05 08:16:50;;;;;;;1.40;0.80;;;;;;;;;;5047094;28;20063;-62
2023/04/05 08:19:15;;;;;;;1.90;0.90;;;;;;;;;;5067238;28;20844;-62
2023/04/05 08:21:41;;;;;;;1.90;1.10;;;;;;;;;;5039493;28;20277;-62
2023/04/05 08:24:06;;;;;;;1.77;1.08;;;;;;;;;;5069398;28;20040;-62
2023/04/05 08:26:32;;;;;;;1.98;1.10;;;;;;;;;;5051219;28;20515;-63
2023/04/05 08:28:57;;;;;;;2.20;1.00;;;;;;;;;;5083603;28;20028;-62
2023/04/05 08:31:22;;;;;;;1.80;0.90;;;;;;;;;;5072715;28;20773;-62
2023/04/05 08:33:47;;;;;;;1.55;0.98;;;;;;;;;;5076705;28;20278;-62
2023/04/05 08:36:13;;;;;;;1.93;1.13;;;;;;;;;;5079567;28;20046;-62
2023/04/05 08:38:38;;;;;;;1.58;1.00;;;;;;;;;;5085901;28;20165;-62
2023/04/05 08:41:22;;;;;;;2.20;0.93;;;;;;;;;;5074123;28;20558;-62
2023/04/05 08:43:57;;;;;;;1.92;1.05;;;;;;;;;;5065935;28;20329;-62
2023/04/05 08:46:23;;;;;;;1.38;0.95;;;;;;;;;;5046450;28;20036;-63
2023/04/05 08:48:48;;;;;;;1.00;0.70;;;;;;;;;;5085750;28;20043;-62
2023/04/05 08:51:17;;;;;;;1.75;1.10;;;;;;;;;;5066804;28;20040;-62
2023/04/05 08:53:42;;;;;;;1.27;0.90;;;;;;;;;;5050505;28;20503;-62
2023/04/05 08:56:07;;;;;;;1.40;0.73;;;;;;;;;;5085266;28;20066;-62
2023/04/05 08:58:33;;;;;;;1.30;0.93;;;;;;;;;;5084536;28;20062;-62
2023/04/05 09:00:58;;;;;;;1.55;1.10;;;;;;;;;;5065920;28;20751;-62
2023/04/05 09:03:30;;;;;;;1.60;1.00;;;;;;;;;;5085162;28;20032;-62
2023/04/05 09:05:57;;;;;;;1.33;0.90;;;;;;;;;;5084513;28;20290;-62
2023/04/05 09:08:22;;;;;;;1.50;0.93;;;;;;;;;;5066671;28;20044;-62
2023/04/05 09:10:50;;;;;;;1.60;1.07;;;;;;;;;;5066491;28;20058;-62
2023/04/05 09:13:16;;;;;;;2.30;1.00;;;;;;;;;;5067012;28;20278;-62
2023/04/05 09:15:41;;;;;;;1.80;1.00;;;;;;;;;;5066718;28;20032;-63
2023/04/05 09:18:06;;;;;;;1.20;0.80;;;;;;;;;;5085660;28;20301;-62
2023/04/05 09:20:32;;;;;;;1.60;0.83;;;;;;;;;;5065009;28;20066;-63
2023/04/05 09:22:57;;;;;;;1.58;0.80;;;;;;;;;;5069092;28;20088;-63
2023/04/05 09:25:32;;;;;;;1.63;0.90;;;;;;;;;;5067805;28;20739;-61
2023/04/05 09:27:58;;;;;;;1.88;0.90;;;;;;;;;;5052103;28;20656;-62
2023/04/05 09:30:23;;;;;;;1.70;0.75;;;;;;;;;;5053863;28;20109;-62
2023/04/05 09:32:53;;;;;;;1.20;0.70;;;;;;;;;;5069753;28;20148;-63
2023/04/05 09:35:19;;;;;;;1.42;0.90;;;;;;;;;;5069919;28;20063;-62
2023/04/05 09:37:52;;;;;;;1.52;0.80;;;;;;;;;;5055222;28;20148;-61
2023/04/05 09:40:17;;;;;;;1.85;0.80;;;;;;;;;;5056136;28;20040;-62
2023/04/05 09:42:46;;;;;;;1.67;0.80;;;;;;;;;;5071333;28;20410;-63
2023/04/05 09:45:11;;;;;;;2.10;1.00;;;;;;;;;;5070434;28;20047;-63
2023/04/05 09:47:37;;;;;;;1.20;0.70;;;;;;;;;;5070652;28;20419;-62
2023/04/05 09:50:14;;;;;;;1.70;0.90;;;;;;;;;;5070866;28;20384;-61
2023/04/05 09:52:39;;;;;;;2.88;1.00;;;;;;;;;;5068257;28;20075;-62
2023/04/05 09:55:08;;;;;;;1.27;0.82;;;;;;;;;;5052943;28;20555;-61
2023/04/05 09:57:34;;;;;;;2.10;0.90;;;;;;;;;;5055415;28;20020;-62
2023/04/05 09:59:59;;;;;;;1.67;0.73;;;;;;;;;;5070793;28;20463;-62
2023/04/05 10:02:24;;;;;;;1.63;0.80;;;;;;;;;;5069380;28;20052;-62
2023/04/05 10:04:50;;;;;;;2.20;1.10;;;;;;;;;;5070542;28;20106;-62
2023/04/05 10:07:16;;;;;;;1.90;1.05;;;;;;;;;;5068869;28;20028;-62
2023/04/05 10:09:42;;;;;;;2.33;1.05;;;;;;;;;;5067138;28;20319;-63
2023/04/05 10:12:07;;;;;;;2.72;0.98;;;;;;;;;;5055714;28;20444;-63
2023/04/05 10:14:33;;;;;;;2.38;0.88;;;;;;;;;;5054920;28;20558;-62
2023/04/05 10:17:04;;;;;;;2.25;1.05;;;;;;;;;;5047380;28;20028;-63
2023/04/05 10:19:36;;;;;;;2.05;0.95;;;;;;;;;;5034498;28;20429;-62
2023/04/05 10:22:01;;;;;;;3.38;1.13;;;;;;;;;;5050229;28;20488;-62
2023/04/05 10:24:26;;;;;;;2.28;1.05;;;;;;;;;;5067684;28;20044;-62
2023/04/05 10:26:51;;;;;;;3.37;1.20;;;;;;;;;;5067649;28;20041;-62
2023/04/05 10:29:18;;;;;;;4.00;1.20;;;;;;;;;;5066795;28;20040;-63
2023/04/05 10:31:52;;;;;;;4.78;1.33;;;;;;;;;;5067511;28;20304;-63
2023/04/05 10:34:24;;;;;;;3.22;1.02;;;;;;;;;;5038330;28;20048;-63
2023/04/05 10:36:56;;;;;;;2.45;1.30;;;;;;;;;;5037707;28;20040;-63
2023/04/05 10:39:28;;;;;;;3.05;1.20;;;;;;;;;;5047997;28;20032;-62
2023/04/05 10:41:56;;;;;;;6.15;1.27;;;;;;;;;;5056597;28;20533;-61
2023/04/05 10:44:21;;;;;;;3.80;1.20;;;;;;;;;;5069286;28;20111;-62
2023/04/05 10:46:47;;;;;;;3.13;1.10;;;;;;;;;;5067685;28;20490;-62
2023/04/05 10:49:12;;;;;;;2.50;1.23;;;;;;;;;;5038933;28;20474;-62
2023/04/05 10:51:37;;;;;;;3.30;1.50;;;;;;;;;;5068782;28;20107;-63
2023/04/05 10:54:02;;;;;;;3.20;1.23;;;;;;;;;;5068252;28;20052;-62
2023/04/05 10:56:27;;;;;;;2.70;1.40;;;;;;;;;;5049345;28;20117;-63
2023/04/05 10:58:53;;;;;;;4.67;1.47;;;;;;;;;;5068468;28;20032;-62
2023/04/05 11:01:18;;;;;;;2.88;1.15;;;;;;;;;;5053218;28;20052;-60
2023/04/05 11:03:43;;;;;;;3.50;1.30;;;;;;;;;;5065816;28;20564;-62
2023/04/05 11:06:32;;;;;;;3.00;1.67;;;;;;;;;;5063889;28;20476;-62
2023/04/05 11:09:19;;;;;;;3.42;1.52;;;;;;;;;;5054130;28;20052;-62
2023/04/05 11:11:45;;;;;;;5.03;1.40;;;;;;;;;;5066700;28;20040;-61
2023/04/05 11:14:29;;;;;;;2.67;1.42;;;;;;;;;;5050603;28;20044;-61
2023/04/05 11:16:58;;;;;;;3.60;1.60;;;;;;;;;;5067996;28;20028;-62
2023/04/05 11:19:42;;;;;;;3.15;1.30;;;;;;;;;;5049262;28;20036;-62
2023/04/05 11:22:07;;;;;;;2.97;1.50;;;;;;;;;;5067469;28;20047;-62
2023/04/05 11:25:00;;;;;;;2.58;1.25;;;;;;;;;;5068623;28;20092;-62
2023/04/05 11:27:29;;;;;;;4.60;1.85;;;;;;;;;;5062233;28;20039;-61
2023/04/05 11:29:55;;;;;;;3.03;1.67;;;;;;;;;;5059002;28;20036;-61
2023/04/05 11:32:20;;;;;;;4.18;1.50;;;;;;;;;;5066782;28;20039;-62
2023/04/05 11:35:04;;;;;;;3.05;1.60;;;;;;;;;;5067234;28;20668;-60
2023/04/05 11:37:48;;;;;;;3.35;1.75;;;;;;;;;;5048972;28;20025;-61
2023/04/05 11:40:24;;;;;;;2.63;1.40;;;;;;;;;;5067588;28;20041;-61
2023/04/05 11:42:56;;;;;;;3.55;1.67;;;;;;;;;;5067138;28;20055;-61
2023/04/05 11:45:22;;;;;;;3.88;1.90;;;;;;;;;;5067907;28;20505;-61
2023/04/05 11:47:47;;;;;;;3.72;1.75;;;;;;;;;;5067773;28;20036;-61
2023/04/05 11:50:12;;;;;;;2.10;1.40;;;;;;;;;;5067040;28;20204;-62
2023/04/05 11:52:37;;;;;;;3.20;1.53;;;;;;;;;;5067016;28;20086;-61
2023/04/05 11:55:04;;;;;;;3.57;1.50;;;;;;;;;;5067955;28;20282;-61
2023/04/05 11:57:30;;;;;;;3.72;1.77;;;;;;;;;;5046124;28;20523;-61
2023/04/05 11:59:55;;;;;;;3.85;1.55;;;;;;;;;;5054526;28;20075;-61
2023/04/05 12:02:20;;;;;;;4.32;1.80;;;;;;;;;;5066997;28;20562;-61
2023/04/05 12:04:57;;;;;;;2.50;1.40;;;;;;;;;;5067006;28;20428;-61
2023/04/05 12:07:24;;;;;;;3.53;1.60;;;;;;;;;;5064828;28;20319;-61
2023/04/05 12:09:59;;;;;;;3.42;1.90;;;;;;;;;;5049414;28;20308;-62
2023/04/05 12:12:24;;;;;;;3.55;1.80;;;;;;;;;;5065775;28;20529;-61
2023/04/05 12:14:50;;;;;;;4.10;1.80;;;;;;;;;;5066875;28;20085;-61
2023/04/05 12:17:15;;;;;;;3.67;1.73;;;;;;;;;;5054702;28;20040;-61
2023/04/05 12:19:40;;;;;;;2.93;1.57;;;;;;;;;;5069047;28;20102;-61
2023/04/05 12:22:05;;;;;;;3.97;1.80;;;;;;;;;;5053704;28;20305;-61
2023/04/05 12:24:31;;;;;;;4.37;1.70;;;;;;;;;;5069779;28;20033;-62
2023/04/05 12:26:56;;;;;;;3.73;1.93;;;;;;;;;;5069645;28;20766;-60
2023/04/05 12:29:21;;;;;;;3.10;1.60;;;;;;;;;;5067616;28;20572;-61
2023/04/05 12:31:46;;;;;;;5.00;2.07;;;;;;;;;;5049797;28;20527;-61
2023/04/05 12:34:12;;;;;;;3.70;1.85;;;;;;;;;;5035750;28;20295;-61
2023/04/05 12:36:37;;;;;;;4.63;2.15;;;;;;;;;;5052628;28;20496;-61
2023/04/05 12:39:06;;;;;;;4.60;1.80;;;;;;;;;;5069848;28;20040;-61
2023/04/05 12:41:31;;;;;;;4.97;1.92;;;;;;;;;;5057236;28;20501;-61
2023/04/05 12:44:00;;;;;;;3.55;2.05;;;;;;;;;;5071581;28;20047;-61
2023/04/05 12:46:44;;;;;;;3.65;2.08;;;;;;;;;;5070378;28;20059;-61
2023/04/05 12:49:10;;;;;;;2.90;1.83;;;;;;;;;;5070539;28;20043;-61
2023/04/05 12:51:36;;;;;;;3.72;1.80;;;;;;;;;;5054528;28;20093;-60
2023/04/05 12:54:04;;;;;;;3.00;1.98;;;;;;;;;;5051919;28;20024;-61
2023/04/05 12:56:29;;;;;;;2.75;1.70;;;;;;;;;;5052242;28;20097;-61
2023/04/05 12:58:55;;;;;;;4.00;1.67;;;;;;;;;;5036035;28;20024;-61
2023/04/05 13:01:20;;;;;;;4.40;1.70;;;;;;;;;;5070414;28;20048;-62
2023/04/05 13:03:45;;;;;;;4.50;2.00;;;;;;;;;;5053998;28;20295;-60
2023/04/05 13:06:11;;;;;;;4.03;1.63;;;;;;;;;;5068358;28;20305;-61
2023/04/05 13:08:36;;;;;;;2.63;1.70;;;;;;;;;;5069109;28;20385;-61
2023/04/05 13:11:01;;;;;;;3.13;2.20;;;;;;;;;;5068661;28;20056;-61
2023/04/05 13:13:26;;;;;;;3.17;1.70;;;;;;;;;;5057769;28;20174;-61
2023/04/05 13:15:52;;;;;;;2.87;1.70;;;;;;;;;;5069702;28;20709;-60
2023/04/05 13:18:17;;;;;;;3.20;1.70;;;;;;;;;;5069494;28;20365;-63
2023/04/05 13:20:42;;;;;;;3.37;1.83;;;;;;;;;;5051353;28;20352;-62
2023/04/05 13:23:09;;;;;;;2.80;1.80;;;;;;;;;;5068494;28;20291;-62
2023/04/05 13:25:35;;;;;;;2.58;1.70;;;;;;;;;;5068750;28;20085;-62
2023/04/05 13:28:00;;;;;;;3.47;1.85;;;;;;;;;;5051865;28;20409;-62
2023/04/05 13:30:26;;;;;;;3.03;1.90;;;;;;;;;;5067497;28;20126;-63
2023/04/05 13:32:51;;;;;;;2.15;1.50;;;;;;;;;;5068880;28;20298;-62
2023/04/05 13:35:17;;;;;;;2.87;1.90;;;;;;;;;;5051729;28;20740;-62
2023/04/05 13:37:42;;;;;;;2.10;1.60;;;;;;;;;;5067423;28;20280;-62
2023/04/05 13:40:07;;;;;;;2.57;1.83;;;;;;;;;;5066544;28;20463;-62
2023/04/05 13:42:32;;;;;;;2.55;1.70;;;;;;;;;;5083578;28;20633;-62
2023/04/05 13:44:58;;;;;;;2.58;1.75;;;;;;;;;;5084491;28;20043;-62
2023/04/05 13:47:23;;;;;;;2.67;1.77;;;;;;;;;;5084412;28;20082;-62
2023/04/05 13:49:48;;;;;;;2.60;1.73;;;;;;;;;;5084064;28;20025;-63
2023/04/05 13:52:14;;;;;;;2.90;2.00;;;;;;;;;;5084021;28;20024;-63
2023/04/05 13:54:39;;;;;;;2.05;1.80;;;;;;;;;;5083616;28;20052;-62
2023/04/05 13:57:05;;;;;;;3.30;1.90;;;;;;;;;;5076796;28;20412;-62
2023/04/05 13:59:30;;;;;;;2.92;1.85;;;;;;;;;;5064900;28;20738;-62
2023/04/05 14:01:56;;;;;;;3.27;1.90;;;;;;;;;;5084299;28;20068;-62
2023/04/05 14:04:21;;;;;;;2.40;1.83;;;;;;;;;;5066025;28;20575;-62
2023/04/05 14:06:46;;;;;;;2.60;1.90;;;;;;;;;;5083942;28;20187;-62
2023/04/05 14:09:11;;;;;;;2.40;1.60;;;;;;;;;;5083544;28;20912;-62
2023/04/05 14:11:37;;;;;;;1.97;1.60;;;;;;;;;;5065825;28;20313;-61
2023/04/05 14:14:02;;;;;;;3.10;1.70;;;;;;;;;;5083517;28;20286;-61
2023/04/05 14:16:28;;;;;;;2.43;1.73;;;;;;;;;;5084236;28;20497;-61
2023/04/05 14:18:53;;;;;;;2.78;1.95;;;;;;;;;;5089653;28;20275;-61
2023/04/05 14:21:18;;;;;;;2.47;2.00;;;;;;;;;;5083415;28;20039;-61
2023/04/05 14:23:44;;;;;;;2.40;1.90;;;;;;;;;;5062548;28;20037;-61
2023/04/05 14:26:10;;;;;;;3.75;1.90;;;;;;;;;;5075375;28;20286;-61
2023/04/05 14:28:35;;;;;;;2.92;1.90;;;;;;;;;;5064473;28;20098;-61
2023/04/05 14:31:00;;;;;;;2.08;1.83;;;;;;;;;;5068023;28;20241;-61
2023/04/05 14:33:26;;;;;;;3.73;1.97;;;;;;;;;;5077863;28;20115;-61
2023/04/05 14:35:51;;;;;;;2.13;1.73;;;;;;;;;;5082276;28;20782;-61
2023/04/05 14:38:16;;;;;;;2.40;2.00;;;;;;;;;;5046763;28;20497;-61
2023/04/05 14:40:42;;;;;;;2.17;1.67;;;;;;;;;;5078430;28;20249;-61
2023/04/05 14:43:07;;;;;;;2.60;1.97;;;;;;;;;;5072508;28;20128;-60